Terminal Aerodrome Forecast
Issued by NWS Sterling, VA

Home | Current Version | Previous Version | Text Only | Print | Product List | Glossary On
Versions: 1 2 3 4 5 6 7 8 9 10 11 12 13
000
FTUS41 KLWX 271700
TAFCHO
TAF
KCHO 271731Z 2718/2818 VRB03KT P6SM FEW045
     FM280000 00000KT P6SM BKN090
     FM280900 00000KT 3SM BR FEW025 FEW100
     FM281200 00000KT P6SM SKC=

USA.gov is the U.S. government's official web portal to all federal, state and local government web resources and services.